Burr Oak, Michigan
Current Conditions -  °F | °C
As of 11:15 AM on Thursday 18 Dec 2014 (Local Time) from KIRS Reporting Station
Overcast Overcast  
Wind Chill: 17°   Ceiling: 1000
Heat Index: 27°   Visibility: 10mi
Dew Point: 25°   Wind: 9mph
Humidity: 93%   Direction: 240°WSW
Pressure: 30.24"   Gusts: NA
Location:  41.85°N, 85.32°W
Report Text: KIRS 181615Z AUTO 24008KT 10SM OVC010 M03/M04 A3024 RMK AO2
Loading
Personal Weather Stations






























Interactive Weather Map New forecast layout! Learn more

10-Day Weather Forecast

Advertisements
Track Severe Weather on mobile